Time;durP1;ratioP1;P1;durP2;ratioP2;P2;SDS_P1;SDS_P2;PMS_P1;PMS_P2;Temp;Humidity;BMP_temperature;BMP_pressure;BME280_temperature;BME280_humidity;BME280_pressure;Samples;Min_cycle;Max_cycle;Signal;HPM_P1;HPM_P2
2022/07/19 00:01:39;;;;;;;4.83;2.70;;;21.80;1.00;;;;;;5048600;28;20450;-57
2022/07/19 00:04:05;;;;;;;4.57;2.80;;;21.70;1.00;;;;;;5047661;28;20533;-56
2022/07/19 00:06:31;;;;;;;3.80;2.63;;;21.60;1.00;;;;;;5049872;28;20569;-57
2022/07/19 00:08:57;;;;;;;3.37;2.90;;;21.50;1.00;;;;;;5048510;28;20288;-57
2022/07/19 00:11:22;;;;;;;3.87;2.63;;;21.50;1.00;;;;;;5050573;28;20598;-57
2022/07/19 00:13:48;;;;;;;5.07;3.07;;;21.40;1.00;;;;;;5046222;28;20180;-56
2022/07/19 00:16:14;;;;;;;3.10;2.50;;;21.30;1.00;;;;;;5048092;28;20176;-57
2022/07/19 00:18:40;;;;;;;4.43;2.50;;;21.30;1.00;;;;;;5049444;28;20389;-56
2022/07/19 00:21:06;;;;;;;4.50;2.60;;;21.20;1.00;;;;;;5050478;28;20999;-57
2022/07/19 00:23:31;;;;;;;2.97;2.60;;;21.20;1.00;;;;;;5050698;28;20565;-57
2022/07/19 00:25:57;;;;;;;3.97;2.73;;;21.30;1.00;;;;;;5048574;28;20226;-57
2022/07/19 00:28:22;;;;;;;3.87;2.20;;;21.20;1.00;;;;;;5045711;28;20192;-57
2022/07/19 00:30:48;;;;;;;3.10;2.33;;;21.20;1.00;;;;;;5048704;28;20242;-56
2022/07/19 00:33:14;;;;;;;3.70;2.60;;;21.20;1.00;;;;;;5051520;28;20184;-57
2022/07/19 00:35:40;;;;;;;3.97;2.50;;;21.00;1.00;;;;;;5049411;28;20184;-58
2022/07/19 00:38:12;;;;;;;3.50;2.47;;;21.00;1.00;;;;;;5050196;28;20484;-56
2022/07/19 00:40:38;;;;;;;3.40;2.73;;;21.00;1.00;;;;;;5052403;28;20492;-56
2022/07/19 00:43:04;;;;;;;3.77;2.40;;;21.00;1.00;;;;;;5046409;28;20803;-55
2022/07/19 00:45:30;;;;;;;3.77;2.93;;;20.90;1.00;;;;;;5046725;28;20435;-56
2022/07/19 00:47:55;;;;;;;4.93;2.97;;;20.90;1.00;;;;;;5050472;28;20245;-57
2022/07/19 00:50:22;;;;;;;5.50;2.70;;;20.90;1.00;;;;;;5050105;28;20215;-57
2022/07/19 00:52:53;;;;;;;5.20;2.37;;;20.80;1.00;;;;;;5049962;28;20198;-56
2022/07/19 00:55:20;;;;;;;4.50;2.40;;;20.80;1.00;;;;;;5050411;28;20450;-57
2022/07/19 00:57:46;;;;;;;10.33;2.70;;;20.70;1.00;;;;;;5046882;28;20847;-56
2022/07/19 01:00:14;;;;;;;5.17;2.97;;;20.70;1.00;;;;;;5047540;28;21494;-56
2022/07/19 01:02:41;;;;;;;3.10;2.17;;;20.70;1.00;;;;;;5046976;28;20475;-57
2022/07/19 01:05:07;;;;;;;5.97;2.80;;;20.70;1.00;;;;;;5048366;28;20536;-56
2022/07/19 01:07:40;;;;;;;4.50;2.83;;;20.60;1.00;;;;;;5047948;28;20972;-56
2022/07/19 01:10:07;;;;;;;5.10;3.13;;;20.60;1.00;;;;;;5049007;28;20442;-56
2022/07/19 01:12:33;;;;;;;5.47;2.80;;;20.60;1.00;;;;;;5045754;28;20530;-57
2022/07/19 01:14:59;;;;;;;5.03;2.97;;;20.50;1.00;;;;;;5039173;28;20899;-56
2022/07/19 01:17:25;;;;;;;8.67;2.67;;;20.40;1.00;;;;;;5046038;28;20466;-56
2022/07/19 01:19:51;;;;;;;4.30;2.83;;;20.40;1.00;;;;;;5048727;28;20484;-58
2022/07/19 01:22:16;;;;;;;3.33;2.63;;;20.40;1.00;;;;;;5051708;28;20441;-56
2022/07/19 01:24:42;;;;;;;4.67;2.90;;;20.40;1.00;;;;;;5062736;28;20180;-57
2022/07/19 01:27:08;;;;;;;2.77;2.47;;;20.30;1.00;;;;;;5047558;28;20630;-56
2022/07/19 01:29:37;;;;;;;3.13;2.83;;;20.30;1.00;;;;;;5045935;28;20192;-55
2022/07/19 01:32:04;;;;;;;3.47;2.47;;;20.30;1.00;;;;;;5048646;28;20303;-56
2022/07/19 01:34:30;;;;;;;2.97;2.50;;;20.30;1.00;;;;;;5050444;28;20449;-56
2022/07/19 01:36:55;;;;;;;5.30;2.50;;;20.30;1.00;;;;;;5046121;28;20470;-57
2022/07/19 01:39:21;;;;;;;3.73;3.00;;;20.20;1.00;;;;;;5044316;28;20526;-57
2022/07/19 01:41:46;;;;;;;3.30;2.33;;;20.20;1.00;;;;;;5049527;28;20531;-56
2022/07/19 01:44:12;;;;;;;2.93;2.60;;;20.30;1.00;;;;;;5047604;28;20286;-56
2022/07/19 01:46:38;;;;;;;3.33;2.70;;;20.20;1.00;;;;;;5049338;28;20213;-57
2022/07/19 01:49:04;;;;;;;4.67;2.60;;;20.10;1.00;;;;;;5048002;28;20626;-56
2022/07/19 01:51:29;;;;;;;5.60;2.73;;;20.10;1.00;;;;;;5046390;28;20192;-56
2022/07/19 01:53:55;;;;;;;5.57;2.90;;;20.10;1.00;;;;;;5049400;28;20493;-56
2022/07/19 01:56:21;;;;;;;3.90;2.40;;;20.00;1.00;;;;;;5045791;28;20242;-56
2022/07/19 01:58:46;;;;;;;3.17;2.73;;;20.00;1.00;;;;;;5046275;28;20283;-55
2022/07/19 02:01:12;;;;;;;7.23;3.00;;;20.00;1.00;;;;;;5045004;28;20188;-56
2022/07/19 02:03:37;;;;;;;6.60;2.87;;;19.90;1.00;;;;;;5048986;28;20215;-57
2022/07/19 02:06:06;;;;;;;5.83;3.07;;;19.80;1.00;;;;;;5045542;28;20192;-57
2022/07/19 02:08:31;;;;;;;4.00;2.57;;;19.80;1.00;;;;;;5045562;28;20642;-56
2022/07/19 02:10:59;;;;;;;3.60;2.70;;;19.80;1.00;;;;;;5046492;28;20480;-54
2022/07/19 02:13:24;;;;;;;3.93;2.70;;;19.80;1.00;;;;;;5044167;28;20225;-64
2022/07/19 02:15:51;;;;;;;4.63;2.57;;;19.80;1.00;;;;;;5045509;28;20462;-56
2022/07/19 02:18:16;;;;;;;4.60;2.77;;;19.70;1.00;;;;;;5048272;28;20565;-57
2022/07/19 02:20:42;;;;;;;4.87;2.80;;;19.80;1.00;;;;;;5046111;28;21042;-56
2022/07/19 02:23:07;;;;;;;3.60;2.40;;;19.80;1.00;;;;;;5044878;28;20207;-56
2022/07/19 02:25:33;;;;;;;3.40;2.83;;;19.70;1.00;;;;;;5045931;28;20645;-56
2022/07/19 02:28:00;;;;;;;6.83;2.90;;;19.60;1.00;;;;;;5048458;28;20227;-56
2022/07/19 02:30:25;;;;;;;5.13;3.00;;;19.60;1.00;;;;;;5047331;28;20215;-57
2022/07/19 02:32:51;;;;;;;3.63;2.47;;;19.60;1.00;;;;;;5046375;28;20454;-56
2022/07/19 02:35:18;;;;;;;3.77;3.00;;;19.60;1.00;;;;;;5045870;28;20195;-57
2022/07/19 02:37:44;;;;;;;4.03;2.80;;;19.50;1.00;;;;;;5044244;28;20238;-55
2022/07/19 02:40:11;;;;;;;2.90;2.43;;;19.50;1.00;;;;;;5045964;28;20446;-56
2022/07/19 02:42:37;;;;;;;3.70;2.77;;;19.50;1.00;;;;;;5046716;28;20482;-57
2022/07/19 02:45:03;;;;;;;2.77;2.57;;;17.70;1.00;;;;;;5045977;28;20946;-56
2022/07/19 02:47:29;;;;;;;5.83;2.63;;;19.40;1.00;;;;;;5052608;28;20510;-55
2022/07/19 02:49:54;;;;;;;4.60;2.47;;;19.40;1.00;;;;;;5041473;28;20486;-56
2022/07/19 02:52:20;;;;;;;4.53;2.63;;;19.40;1.00;;;;;;5043223;28;20196;-56
2022/07/19 02:54:46;;;;;;;3.73;2.70;;;19.30;1.00;;;;;;5043482;28;20777;-57
2022/07/19 02:57:11;;;;;;;3.60;2.67;;;19.30;1.00;;;;;;5047694;28;20329;-56
2022/07/19 02:59:37;;;;;;;6.97;2.93;;;19.30;1.00;;;;;;5047772;28;20582;-56
2022/07/19 03:02:02;;;;;;;3.97;3.03;;;19.30;1.00;;;;;;5045029;28;20192;-56
2022/07/19 03:04:28;;;;;;;3.20;2.73;;;19.30;1.00;;;;;;5043313;28;20206;-55
2022/07/19 03:06:54;;;;;;;6.30;2.57;;;19.30;1.00;;;;;;5049358;28;20556;-56
2022/07/19 03:09:20;;;;;;;3.50;3.00;;;19.30;1.00;;;;;;5041648;28;20245;-57
2022/07/19 03:11:45;;;;;;;6.13;3.23;;;19.20;1.00;;;;;;5048757;28;20442;-56
2022/07/19 03:14:11;;;;;;;8.13;2.70;;;19.20;1.00;;;;;;5047698;28;20192;-55
2022/07/19 03:16:36;;;;;;;2.90;2.60;;;19.20;1.00;;;;;;5051333;28;20202;-56
2022/07/19 03:19:02;;;;;;;4.17;3.10;;;19.20;1.00;;;;;;5050942;28;20202;-56
2022/07/19 03:21:28;;;;;;;8.80;2.83;;;19.20;1.00;;;;;;5050056;28;20187;-56
2022/07/19 03:23:53;;;;;;;4.50;3.27;;;19.10;1.00;;;;;;5049373;28;20677;-57
2022/07/19 03:26:19;;;;;;;6.87;3.17;;;19.20;1.00;;;;;;5049668;28;20282;-56
2022/07/19 03:28:44;;;;;;;3.03;2.70;;;19.10;1.00;;;;;;5049857;28;20763;-56
2022/07/19 03:31:10;;;;;;;5.30;3.23;;;19.10;1.00;;;;;;5051133;28;20219;-56
2022/07/19 03:33:35;;;;;;;3.97;2.73;;;19.00;1.00;;;;;;5047277;28;20887;-55
2022/07/19 03:36:01;;;;;;;5.80;3.30;;;19.10;1.00;;;;;;5049094;28;20661;-56
2022/07/19 03:38:30;;;;;;;3.93;2.80;;;19.10;1.00;;;;;;5052224;28;20220;-57
2022/07/19 03:40:56;;;;;;;3.30;3.00;;;19.20;1.00;;;;;;5050792;28;20959;-56
2022/07/19 03:43:23;;;;;;;3.43;2.87;;;19.30;1.00;;;;;;5048225;28;20338;-56
2022/07/19 03:45:48;;;;;;;5.67;3.07;;;19.40;1.00;;;;;;5051131;28;20688;-56
2022/07/19 03:48:14;;;;;;;4.07;2.80;;;19.50;1.00;;;;;;5049724;28;20454;-57
2022/07/19 03:50:40;;;;;;;3.70;3.00;;;19.50;1.00;;;;;;5050724;28;20218;-56
2022/07/19 03:53:07;;;;;;;3.97;2.90;;;19.60;1.00;;;;;;5049552;28;20261;-57
2022/07/19 03:55:32;;;;;;;4.50;3.07;;;19.40;1.00;;;;;;5048601;28;20453;-57
2022/07/19 03:57:58;;;;;;;3.10;2.87;;;19.50;1.00;;;;;;5049318;28;20485;-57
2022/07/19 04:00:24;;;;;;;3.93;2.97;;;19.40;1.00;;;;;;5051898;28;20242;-57
2022/07/19 04:02:50;;;;;;;5.67;3.40;;;19.40;1.00;;;;;;5047300;28;20557;-57
2022/07/19 04:05:16;;;;;;;4.77;3.50;;;19.30;1.00;;;;;;5046931;28;20496;-56
2022/07/19 04:07:41;;;;;;;3.80;3.03;;;19.30;1.00;;;;;;5048620;28;20570;-56
2022/07/19 04:10:07;;;;;;;4.57;3.27;;;19.40;1.00;;;;;;5052139;28;20328;-56
2022/07/19 04:12:34;;;;;;;5.23;2.87;;;19.40;1.00;;;;;;5050907;28;20253;-58
2022/07/19 04:15:00;;;;;;;3.70;3.03;;;19.30;1.00;;;;;;5051177;28;20788;-58
2022/07/19 04:17:26;;;;;;;4.90;2.90;;;19.40;1.00;;;;;;5046828;28;20500;-57
2022/07/19 04:19:52;;;;;;;4.80;3.13;;;19.40;1.00;;;;;;5047071;28;20446;-58
2022/07/19 04:22:18;;;;;;;3.50;2.70;;;19.40;1.00;;;;;;5051506;28;20442;-58
2022/07/19 04:24:43;;;;;;;3.70;2.97;;;19.50;1.00;;;;;;5049240;28;20187;-57
2022/07/19 04:27:09;;;;;;;3.57;2.60;;;19.50;1.00;;;;;;5049810;28;20199;-58
2022/07/19 04:29:35;;;;;;;3.73;2.77;;;19.80;1.00;;;;;;5051843;28;20672;-56
2022/07/19 04:32:00;;;;;;;3.60;3.00;;;19.60;1.00;;;;;;5053073;28;20262;-58
2022/07/19 04:34:26;;;;;;;3.47;2.70;;;19.80;1.00;;;;;;5050648;28;20613;-57
2022/07/19 04:36:51;;;;;;;3.87;3.03;;;19.80;1.00;;;;;;5049876;28;20744;-58
2022/07/19 04:39:17;;;;;;;5.17;3.27;;;19.90;1.00;;;;;;5051605;28;20187;-58
2022/07/19 04:41:42;;;;;;;5.00;3.07;;;19.90;1.00;;;;;;5051423;28;20658;-58
2022/07/19 04:44:08;;;;;;;8.20;3.50;;;20.00;1.00;;;;;;5051274;28;20184;-57
2022/07/19 04:46:34;;;;;;;6.00;3.33;;;20.00;1.00;;;;;;5050497;28;20195;-57
2022/07/19 04:48:59;;;;;;;4.27;3.20;;;20.10;1.00;;;;;;5050024;28;20210;-57
2022/07/19 04:51:25;;;;;;;6.17;3.27;;;20.20;1.00;;;;;;5050115;28;20645;-56
2022/07/19 04:53:50;;;;;;;4.53;3.60;;;20.20;1.00;;;;;;5051158;28;20180;-57
2022/07/19 04:56:16;;;;;;;3.83;2.87;;;20.30;1.00;;;;;;5049090;28;20606;-56
2022/07/19 04:58:42;;;;;;;3.73;3.23;;;20.40;1.00;;;;;;5050886;28;20216;-56
2022/07/19 05:01:07;;;;;;;4.73;3.30;;;20.50;1.00;;;;;;5049924;28;20180;-56
2022/07/19 05:03:33;;;;;;;4.43;3.40;;;20.50;1.00;;;;;;5050201;28;20180;-57
2022/07/19 05:05:59;;;;;;;8.83;3.70;;;20.70;1.00;;;;;;5047017;28;20192;-56
2022/07/19 05:08:24;;;;;;;3.90;3.10;;;20.80;1.00;;;;;;5051597;28;20349;-56
2022/07/19 05:10:50;;;;;;;4.70;3.37;;;20.80;1.00;;;;;;5049860;28;20593;-56
2022/07/19 05:13:15;;;;;;;6.70;3.53;;;20.90;1.00;;;;;;5049842;28;20188;-56
2022/07/19 05:15:41;;;;;;;5.80;3.20;;;21.00;1.00;;;;;;5047882;28;20198;-60
2022/07/19 05:18:06;;;;;;;12.70;3.60;;;21.10;1.00;;;;;;5049047;28;20215;-56
2022/07/19 05:20:32;;;;;;;5.37;3.00;;;21.10;1.00;;;;;;5049296;28;20542;-55
2022/07/19 05:22:58;;;;;;;6.70;3.37;;;21.10;1.00;;;;;;5048451;28;20191;-56
2022/07/19 05:25:24;;;;;;;7.60;3.13;;;21.30;1.00;;;;;;5049326;28;20450;-57
2022/07/19 05:27:49;;;;;;;6.23;3.63;;;21.30;1.00;;;;;;5048634;28;20640;-57
2022/07/19 05:30:15;;;;;;;6.67;3.50;;;21.40;1.00;;;;;;5048834;28;20188;-56
2022/07/19 05:32:41;;;;;;;5.67;3.20;;;21.60;1.00;;;;;;5049929;28;20230;-56
2022/07/19 05:35:07;;;;;;;6.70;2.73;;;21.70;1.00;;;;;;5049369;28;20210;-56
2022/07/19 05:37:32;;;;;;;3.73;2.80;;;21.90;1.00;;;;;;5054138;28;20298;-56
2022/07/19 05:39:58;;;;;;;5.07;3.20;;;22.00;1.00;;;;;;5066553;28;20454;-56
2022/07/19 05:42:23;;;;;;;5.97;2.73;;;22.10;1.00;;;;;;5049497;28;20295;-56
2022/07/19 05:44:49;;;;;;;4.83;3.40;;;22.20;1.00;;;;;;5049430;28;20196;-56
2022/07/19 05:47:15;;;;;;;6.00;3.00;;;22.40;1.00;;;;;;5048124;28;20239;-57
2022/07/19 05:49:41;;;;;;;9.43;2.90;;;22.40;1.00;;;;;;5049933;28;20651;-57
2022/07/19 05:52:07;;;;;;;6.87;3.50;;;22.60;1.00;;;;;;5048916;28;20602;-57
2022/07/19 05:54:32;;;;;;;5.40;3.03;;;22.70;1.00;;;;;;5048942;28;20725;-57
2022/07/19 05:56:58;;;;;;;6.23;3.70;;;22.90;1.00;;;;;;5048822;28;20242;-56
2022/07/19 05:59:23;;;;;;;3.63;2.60;;;22.80;1.00;;;;;;5047803;28;20196;-57
2022/07/19 06:01:49;;;;;;;6.63;3.37;;;23.00;1.00;;;;;;5048545;28;20199;-59
2022/07/19 06:04:15;;;;;;;7.20;3.60;;;23.10;1.00;;;;;;5049608;28;20538;-56
2022/07/19 06:06:41;;;;;;;4.80;2.60;;;23.30;1.00;;;;;;5050076;28;20192;-58
2022/07/19 06:09:07;;;;;;;5.47;3.13;;;23.40;1.00;;;;;;5049573;28;20230;-57
2022/07/19 06:11:34;;;;;;;8.10;3.10;;;23.60;1.00;;;;;;5045720;28;20188;-57
2022/07/19 06:14:00;;;;;;;10.33;3.50;;;23.70;1.00;;;;;;5048418;28;20447;-57
2022/07/19 06:16:25;;;;;;;5.50;3.07;;;23.80;1.00;;;;;;5049208;28;20450;-57
2022/07/19 06:18:51;;;;;;;6.13;2.67;;;23.90;1.00;;;;;;5049669;28;20481;-55
2022/07/19 06:21:18;;;;;;;9.10;3.10;;;24.00;1.00;;;;;;5048388;28;20184;-58
2022/07/19 06:23:45;;;;;;;4.07;3.00;;;24.20;1.00;;;;;;5049363;28;20198;-57
2022/07/19 06:26:11;;;;;;;6.73;3.53;;;24.40;1.00;;;;;;5048469;28;20465;-57
2022/07/19 06:28:37;;;;;;;4.70;2.73;;;24.40;1.00;;;;;;5046242;28;20462;-58
2022/07/19 06:31:12;;;;;;;8.87;3.57;;;24.50;1.00;;;;;;5047745;28;20474;-57
2022/07/19 06:33:43;;;;;;;7.73;2.63;;;24.50;1.00;;;;;;5049748;28;20183;-56
2022/07/19 06:36:09;;;;;;;9.60;2.90;;;24.60;1.00;;;;;;5049027;28;20975;-57
2022/07/19 06:38:35;;;;;;;4.03;2.70;;;24.70;1.00;;;;;;5047534;28;21046;-57
2022/07/19 06:41:00;;;;;;;4.87;3.77;;;24.80;1.00;;;;;;5046433;28;20542;-60
2022/07/19 06:43:26;;;;;;;3.27;2.60;;;25.00;1.00;;;;;;5048575;28;20451;-57
2022/07/19 06:45:52;;;;;;;4.00;2.50;;;25.20;1.00;;;;;;5049131;28;20645;-56
2022/07/19 06:48:17;;;;;;;8.83;2.90;;;25.40;1.00;;;;;;5048711;28;20184;-57
2022/07/19 06:50:43;;;;;;;8.47;2.90;;;25.60;1.00;;;;;;5047830;28;20195;-56
2022/07/19 06:53:09;;;;;;;4.10;3.10;;;25.80;1.00;;;;;;5049831;28;20739;-56
2022/07/19 06:55:36;;;;;;;3.83;2.50;;;26.00;1.00;;;;;;5049598;28;20196;-57
2022/07/19 06:58:01;;;;;;;3.17;2.87;;;26.10;1.00;;;;;;5046790;28;20774;-56
2022/07/19 07:00:27;;;;;;;4.80;2.60;;;26.20;1.00;;;;;;5048600;28;20481;-56
2022/07/19 07:02:53;;;;;;;10.60;3.00;;;26.20;1.00;;;;;;5047415;28;20584;-57
2022/07/19 07:05:18;;;;;;;4.47;2.90;;;26.40;1.00;;;;;;5047572;28;20176;-57
2022/07/19 07:07:44;;;;;;;8.10;2.73;;;26.60;1.00;;;;;;5048778;28;20235;-57
2022/07/19 07:10:10;;;;;;;4.00;2.77;;;26.70;1.00;;;;;;5048630;28;20215;-58
2022/07/19 07:12:37;;;;;;;3.93;2.77;;;26.90;1.00;;;;;;5048970;28;20245;-56
2022/07/19 07:15:04;;;;;;;5.00;2.70;;;27.00;1.00;;;;;;5047152;28;20910;-57
2022/07/19 07:17:29;;;;;;;3.03;2.70;;;27.10;1.00;;;;;;5048111;28;20986;-56
2022/07/19 07:19:56;;;;;;;5.43;3.13;;;27.20;1.00;;;;;;5047190;28;20451;-56
2022/07/19 07:22:21;;;;;;;3.63;3.00;;;27.40;1.00;;;;;;5047429;28;20192;-57
2022/07/19 07:24:47;;;;;;;4.20;2.97;;;27.60;1.00;;;;;;5054372;28;20532;-57
2022/07/19 07:27:12;;;;;;;6.07;2.80;;;27.70;1.00;;;;;;5061536;28;20198;-57
2022/07/19 07:29:38;;;;;;;3.67;2.30;;;28.00;1.00;;;;;;5048898;28;20572;-56
2022/07/19 07:32:04;;;;;;;4.67;2.43;;;28.00;1.00;;;;;;5047920;28;20622;-57
2022/07/19 07:34:29;;;;;;;5.70;3.17;;;28.10;1.00;;;;;;5048034;28;20184;-56
2022/07/19 07:36:55;;;;;;;4.23;2.57;;;28.30;1.00;;;;;;5047043;28;20271;-56
2022/07/19 07:39:20;;;;;;;4.10;2.60;;;28.50;1.00;;;;;;5047329;28;20680;-56
2022/07/19 07:41:46;;;;;;;5.17;2.90;;;28.60;1.00;;;;;;5048323;28;20269;-58
2022/07/19 07:44:11;;;;;;;4.63;2.83;;;28.60;1.00;;;;;;5046912;28;20192;-57
2022/07/19 07:46:37;;;;;;;2.73;2.20;;;28.80;1.00;;;;;;5048172;28;20180;-57
2022/07/19 07:49:03;;;;;;;5.20;2.97;;;29.10;1.00;;;;;;5048009;28;20241;-58
2022/07/19 07:51:28;;;;;;;4.27;2.77;;;29.30;1.00;;;;;;5048615;28;20907;-58
2022/07/19 07:53:54;;;;;;;7.93;3.33;;;29.30;1.00;;;;;;5050310;28;20661;-56
2022/07/19 07:56:20;;;;;;;3.03;2.47;;;29.50;1.00;;;;;;5052228;28;20665;-58
2022/07/19 07:58:46;;;;;;;5.30;2.83;;;29.60;1.00;;;;;;5050794;28;20565;-57
2022/07/19 08:01:11;;;;;;;3.50;2.80;;;29.70;1.00;;;;;;5051326;28;20222;-56
2022/07/19 08:03:37;;;;;;;4.70;2.70;;;30.00;1.00;;;;;;5049013;28;20191;-56
2022/07/19 08:06:06;;;;;;;5.43;3.23;;;30.10;1.00;;;;;;5051090;28;20188;-56
2022/07/19 08:08:31;;;;;;;5.43;2.83;;;29.90;1.00;;;;;;5052751;28;20191;-57
2022/07/19 08:10:57;;;;;;;7.07;2.93;;;29.80;1.00;;;;;;5053484;28;20458;-57
2022/07/19 08:13:23;;;;;;;3.73;2.90;;;30.00;1.00;;;;;;5050452;28;20192;-57
2022/07/19 08:15:50;;;;;;;4.40;2.60;;;30.20;1.00;;;;;;5050280;28;21210;-57
2022/07/19 08:18:16;;;;;;;4.63;2.93;;;30.30;1.00;;;;;;5050649;28;20220;-57
2022/07/19 08:20:43;;;;;;;3.83;2.40;;;30.60;1.00;;;;;;5051416;28;20470;-58
2022/07/19 08:23:08;;;;;;;7.70;2.67;;;30.80;1.00;;;;;;5050968;28;20962;-59
2022/07/19 08:25:34;;;;;;;3.40;2.93;;;30.90;1.00;;;;;;5051857;28;20442;-58
2022/07/19 08:28:00;;;;;;;7.07;2.63;;;31.00;1.00;;;;;;5050272;28;20196;-59
2022/07/19 08:30:26;;;;;;;6.67;2.70;;;30.90;1.00;;;;;;5050007;28;20191;-58
2022/07/19 08:32:52;;;;;;;6.77;2.63;;;31.20;1.00;;;;;;5051081;28;20476;-58
2022/07/19 08:35:17;;;;;;;3.20;2.90;;;31.50;1.00;;;;;;5051203;28;20443;-58
2022/07/19 08:37:43;;;;;;;2.70;2.50;;;31.80;1.00;;;;;;5050948;28;20708;-58
2022/07/19 08:40:09;;;;;;;4.23;2.63;;;31.90;1.00;;;;;;5051537;28;20687;-58
2022/07/19 08:42:35;;;;;;;2.83;2.50;;;31.80;1.00;;;;;;5061812;28;20184;-58
2022/07/19 08:45:04;;;;;;;6.43;2.60;;;31.70;1.00;;;;;;5064605;28;20880;-57
2022/07/19 08:47:31;;;;;;;4.70;2.43;;;31.90;1.00;;;;;;5052049;28;20442;-58
2022/07/19 08:49:59;;;;;;;7.50;2.70;;;32.00;1.00;;;;;;5048724;28;20446;-58
2022/07/19 08:52:25;;;;;;;4.00;2.87;;;32.10;1.00;;;;;;5051087;28;20551;-58
2022/07/19 08:54:51;;;;;;;3.70;2.57;;;32.20;1.00;;;;;;5051851;28;21225;-59
2022/07/19 09:00:04;;;;;;;3.87;2.03;;;32.50;1.00;;;;;;5048897;28;20246;-57
2022/07/19 09:02:29;;;;;;;2.97;2.07;;;32.60;1.00;;;;;;5050002;28;20541;-59
2022/07/19 09:05:00;;;;;;;3.80;2.67;;;32.50;1.00;;;;;;5049120;28;20535;-59
2022/07/19 09:07:26;;;;;;;2.80;2.60;;;32.70;1.00;;;;;;5051869;28;20188;-58
2022/07/19 09:09:52;;;;;;;2.90;2.27;;;32.70;1.00;;;;;;5051434;28;20533;-58
2022/07/19 09:12:18;;;;;;;2.30;2.10;;;32.60;1.00;;;;;;5057857;28;20998;-59
2022/07/19 09:14:53;;;;;;;3.03;2.60;;;32.60;1.00;;;;;;5071578;28;20191;-58
2022/07/19 09:17:20;;;;;;;3.20;2.83;;;32.60;1.00;;;;;;5071260;28;20291;-58
2022/07/19 09:19:49;;;;;;;3.00;2.33;;;32.90;1.00;;;;;;5062533;28;20484;-58
2022/07/19 09:22:17;;;;;;;3.20;2.60;;;33.10;1.00;;;;;;5051630;28;20645;-57
2022/07/19 09:24:46;;;;;;;3.50;2.27;;;33.20;1.00;;;;;;5051464;28;20441;-59
2022/07/19 09:27:17;;;;;;;4.17;2.53;;;33.40;1.00;;;;;;5051112;28;20442;-56
2022/07/19 09:29:47;;;;;;;3.87;2.50;;;33.40;1.00;;;;;;5051192;28;20443;-59
2022/07/19 09:32:18;;;;;;;8.83;3.50;;;33.20;1.00;;;;;;5050895;28;20550;-57
2022/07/19 09:34:54;;;;;;;4.73;2.57;;;33.10;1.00;;;;;;5051129;28;20438;-58
2022/07/19 09:37:25;;;;;;;4.30;2.50;;;33.20;1.00;;;;;;5050028;28;20830;-58
2022/07/19 09:39:53;;;;;;;3.13;2.43;;;33.40;1.00;;;;;;5069963;28;20434;-59
2022/07/19 09:42:24;;;;;;;2.67;2.47;;;33.20;1.00;;;;;;5065410;28;20442;-59
2022/07/19 09:45:02;;;;;;;3.97;2.27;;;33.70;1.00;;;;;;5051095;28;20442;-58
2022/07/19 09:47:38;;;;;;;4.73;2.50;;;33.70;1.00;;;;;;5050375;28;20882;-59
2022/07/19 09:50:07;;;;;;;4.13;2.20;;;33.60;1.00;;;;;;5048594;28;20446;-59
2022/07/19 09:52:36;;;;;;;4.50;2.27;;;33.60;1.00;;;;;;5050841;28;20458;-59
2022/07/19 09:55:06;;;;;;;4.93;2.47;;;33.40;1.00;;;;;;5050664;28;20477;-60
2022/07/19 09:57:35;;;;;;;6.10;4.90;;;33.60;1.00;;;;;;5050417;28;20863;-60
2022/07/19 10:00:03;;;;;;;3.73;2.40;;;33.80;1.00;;;;;;5050805;28;20435;-58
2022/07/19 10:02:29;;;;;;;7.80;2.90;;;33.70;1.00;;;;;;5050266;28;20435;-57
2022/07/19 10:04:57;;;;;;;6.67;2.50;;;33.70;1.00;;;;;;5050750;28;20925;-59
2022/07/19 10:07:23;;;;;;;3.23;2.93;;;33.80;1.00;;;;;;5050688;28;20188;-58
2022/07/19 10:09:50;;;;;;;3.33;2.83;;;33.80;1.00;;;;;;5050688;28;20526;-58
2022/07/19 10:12:16;;;;;;;5.60;3.10;;;33.90;1.00;;;;;;5049957;28;20447;-60
2022/07/19 10:14:42;;;;;;;6.20;3.20;;;34.20;1.00;;;;;;5050276;28;20436;-58
2022/07/19 10:17:18;;;;;;;6.17;2.97;;;34.50;1.00;;;;;;5050054;28;20458;-60
2022/07/19 10:19:47;;;;;;;3.50;2.30;;;34.50;1.00;;;;;;5050132;28;20412;-58
2022/07/19 10:22:24;;;;;;;3.20;2.90;;;34.50;1.00;;;;;;5050031;28;20444;-58
2022/07/19 10:25:10;;;;;;;4.33;2.40;;;34.20;1.00;;;;;;5050302;28;20780;-59
2022/07/19 10:27:36;;;;;;;3.33;3.03;;;33.90;1.00;;;;;;5049908;28;20443;-58
2022/07/19 10:30:10;;;;;;;2.77;2.57;;;34.20;1.00;;;;;;5050027;28;20453;-59
2022/07/19 10:32:38;;;;;;;6.50;2.70;;;34.40;1.00;;;;;;5050390;28;20511;-58
2022/07/19 10:35:32;;;;;;;5.90;2.83;;;34.30;1.00;;;;;;5050498;28;20426;-59
2022/07/19 10:38:00;;;;;;;3.40;2.70;;;34.40;1.00;;;;;;5049994;28;20466;-61
2022/07/19 10:40:43;;;;;;;3.30;2.50;;;34.50;1.00;;;;;;5050276;28;20423;-58
2022/07/19 10:43:17;;;;;;;5.23;2.53;;;34.10;1.00;;;;;;5049690;28;20419;-59
2022/07/19 10:46:05;;;;;;;2.97;2.67;;;34.40;1.00;;;;;;5050015;28;20447;-59
2022/07/19 10:48:48;;;;;;;6.77;2.63;;;34.40;1.00;;;;;;5050111;28;20473;-58
2022/07/19 10:51:30;;;;;;;2.87;2.57;;;34.30;1.00;;;;;;5050142;28;20521;-58
2022/07/19 10:54:06;;;;;;;3.87;2.53;;;34.50;1.00;;;;;;5049853;28;20446;-60
2022/07/19 10:56:55;;;;;;;3.53;2.83;;;34.60;1.00;;;;;;5049817;28;20445;-59
2022/07/19 10:59:35;;;;;;;3.90;2.70;;;34.50;1.00;;;;;;5049730;28;20495;-59
2022/07/19 11:02:02;;;;;;;3.80;2.43;;;34.90;1.00;;;;;;5048244;28;20446;-59
2022/07/19 11:04:33;;;;;;;4.40;2.37;;;34.90;1.00;;;;;;5049945;28;20446;-59
2022/07/19 11:07:22;;;;;;;3.67;2.37;;;34.70;1.00;;;;;;5049764;28;20896;-59
2022/07/19 11:09:57;;;;;;;4.57;2.80;;;34.60;1.00;;;;;;5050025;28;21023;-60
2022/07/19 11:12:28;;;;;;;3.60;2.60;;;34.80;1.00;;;;;;5049430;28;20946;-59
2022/07/19 11:14:55;;;;;;;3.00;2.30;;;34.90;1.00;;;;;;5049835;28;20451;-59
2022/07/19 11:17:21;;;;;;;3.83;2.63;;;34.70;1.00;;;;;;5048234;28;21239;-59
2022/07/19 11:20:07;;;;;;;6.37;2.23;;;34.90;1.00;;;;;;5049882;28;20525;-59
2022/07/19 11:22:34;;;;;;;7.40;2.97;;;34.90;1.00;;;;;;5049731;28;20188;-60
2022/07/19 11:25:00;;;;;;;3.10;2.57;;;34.90;1.00;;;;;;5049983;28;20439;-59
2022/07/19 11:27:26;;;;;;;5.13;2.73;;;34.70;1.00;;;;;;5049308;28;20450;-60
2022/07/19 11:30:03;;;;;;;4.20;2.67;;;34.50;1.00;;;;;;5053176;28;20230;-59
2022/07/19 11:32:30;;;;;;;6.77;3.33;;;34.40;1.00;;;;;;5052418;28;20462;-59
2022/07/19 11:35:05;;;;;;;3.70;2.93;;;34.60;1.00;;;;;;5053342;28;20446;-59
2022/07/19 11:37:34;;;;;;;3.73;3.07;;;34.60;1.00;;;;;;5053304;28;20483;-58
2022/07/19 11:40:00;;;;;;;2.77;2.57;;;;;;;;;;5053344;28;20473;-59
2022/07/19 11:42:41;;;;;;;3.77;2.80;;;35.00;1.00;;;;;;5053323;28;20442;-59
2022/07/19 11:45:15;;;;;;;3.60;2.70;;;34.80;1.00;;;;;;5053405;28;20450;-59
2022/07/19 11:47:45;;;;;;;3.70;2.60;;;34.80;1.00;;;;;;5053197;28;20792;-59
2022/07/19 11:50:13;;;;;;;4.00;3.03;;;34.90;1.00;;;;;;5053387;28;20493;-58
2022/07/19 11:52:54;;;;;;;6.03;2.80;;;34.90;1.00;;;;;;5053228;28;20444;-59
2022/07/19 11:55:22;;;;;;;3.70;3.00;;;34.90;1.00;;;;;;5052459;28;20974;-59
2022/07/19 11:57:49;;;;;;;4.07;2.80;;;35.10;1.00;;;;;;5052976;28;20469;-59
2022/07/19 12:00:16;;;;;;;3.23;3.03;;;35.30;1.00;;;;;;5053021;28;20461;-60
2022/07/19 12:03:04;;;;;;;4.87;3.03;;;35.10;1.00;;;;;;5052864;28;20856;-59
2022/07/19 12:05:38;;;;;;;7.83;3.63;;;35.40;1.00;;;;;;5052834;28;20438;-60
2022/07/19 12:08:08;;;;;;;3.20;2.90;;;35.60;1.00;;;;;;5052775;28;20439;-59
2022/07/19 12:10:45;;;;;;;4.20;2.80;;;35.60;1.00;;;;;;5053115;28;20431;-60
2022/07/19 12:13:15;;;;;;;4.53;2.83;;;35.60;1.00;;;;;;5053065;28;20503;-59
2022/07/19 12:15:43;;;;;;;3.23;2.93;;;35.50;1.00;;;;;;5052843;28;20438;-59
2022/07/19 12:18:09;;;;;;;3.80;2.80;;;35.30;1.00;;;;;;5052394;28;21337;-59
2022/07/19 12:20:34;;;;;;;3.23;2.80;;;35.30;1.00;;;;;;5052636;28;20549;-60
2022/07/19 12:23:19;;;;;;;3.90;3.30;;;35.40;1.00;;;;;;5050844;28;20207;-59
2022/07/19 12:25:45;;;;;;;4.33;3.03;;;35.30;1.00;;;;;;5051184;28;20673;-57
2022/07/19 12:28:11;;;;;;;2.90;2.70;;;35.30;1.00;;;;;;5052040;28;20532;-59
2022/07/19 12:30:36;;;;;;;3.80;3.40;;;35.50;1.00;;;;;;5049732;28;20453;-59
2022/07/19 12:33:25;;;;;;;4.23;3.83;;;35.50;1.00;;;;;;5052333;28;22268;-59
2022/07/19 12:35:50;;;;;;;4.40;4.00;;;35.30;1.00;;;;;;5070201;28;20191;-58
2022/07/19 12:38:16;;;;;;;4.53;4.13;;;35.40;1.00;;;;;;5072241;28;20468;-59
2022/07/19 12:40:43;;;;;;;8.40;4.03;;;35.40;1.00;;;;;;5071340;28;20184;-58
2022/07/19 12:43:12;;;;;;;5.20;3.80;;;35.70;1.00;;;;;;5072048;28;20186;-58
2022/07/19 12:45:46;;;;;;;5.00;4.10;;;35.60;1.00;;;;;;5072139;28;20520;-59
2022/07/19 12:48:14;;;;;;;8.53;4.80;;;35.70;1.00;;;;;;5072108;28;20795;-59
2022/07/19 12:50:45;;;;;;;6.30;4.30;;;35.60;1.00;;;;;;5065751;28;20453;-58
2022/07/19 12:53:13;;;;;;;7.03;3.97;;;35.60;1.00;;;;;;5050762;28;20963;-58
2022/07/19 12:55:40;;;;;;;5.00;4.47;;;35.50;1.00;;;;;;5051906;28;21056;-60
2022/07/19 12:58:07;;;;;;;4.80;4.40;;;35.30;1.00;;;;;;5051676;28;21033;-58
2022/07/19 13:00:36;;;;;;;5.73;4.60;;;35.20;1.00;;;;;;5052195;28;20484;-59
2022/07/19 13:03:03;;;;;;;5.27;4.83;;;35.10;1.00;;;;;;5051818;28;20434;-58